sensor_id;sensor_type;location;lat;lon;timestamp;pressure;altitude;pressure_sealevel;temperature;humidity
80188;BME280;73735;52.134;5.436;2023-11-19T00:00:52;100908.25;;;12.21;95.52
80188;BME280;73735;52.134;5.436;2023-11-19T00:03:19;100910.78;;;12.22;95.38
80188;BME280;73735;52.134;5.436;2023-11-19T00:05:46;100921.34;;;12.22;95.70
80188;BME280;73735;52.134;5.436;2023-11-19T00:08:14;100923.97;;;12.22;95.44
80188;BME280;73735;52.134;5.436;2023-11-19T00:10:40;100913.66;;;12.19;95.04
80188;BME280;73735;52.134;5.436;2023-11-19T00:13:07;100907.53;;;12.19;95.32
80188;BME280;73735;52.134;5.436;2023-11-19T00:15:33;100901.19;;;12.21;95.22
80188;BME280;73735;52.134;5.436;2023-11-19T00:18:00;100913.53;;;12.21;95.19
80188;BME280;73735;52.134;5.436;2023-11-19T00:20:31;100907.41;;;12.20;95.02
80188;BME280;73735;52.134;5.436;2023-11-19T00:22:57;100906.72;;;12.18;95.08
80188;BME280;73735;52.134;5.436;2023-11-19T00:25:23;100917.25;;;12.18;95.21
80188;BME280;73735;52.134;5.436;2023-11-19T00:27:51;100914.63;;;12.18;94.92
80188;BME280;73735;52.134;5.436;2023-11-19T00:30:19;100903.81;;;12.21;95.04
80188;BME280;73735;52.134;5.436;2023-11-19T00:32:46;100896.03;;;12.20;95.08
80188;BME280;73735;52.134;5.436;2023-11-19T00:35:12;100894.34;;;12.19;95.08
80188;BME280;73735;52.134;5.436;2023-11-19T00:37:42;100890.03;;;12.18;94.93
80188;BME280;73735;52.134;5.436;2023-11-19T00:40:09;100888.22;;;12.18;95.20
80188;BME280;73735;52.134;5.436;2023-11-19T00:42:37;100885.59;;;12.18;94.98
80188;BME280;73735;52.134;5.436;2023-11-19T00:45:04;100891.59;;;12.20;94.63
80188;BME280;73735;52.134;5.436;2023-11-19T00:47:34;100889.91;;;12.19;94.83
80188;BME280;73735;52.134;5.436;2023-11-19T00:50:02;100877.66;;;12.18;94.84
80188;BME280;73735;52.134;5.436;2023-11-19T00:52:29;100883.53;;;12.22;94.79
80188;BME280;73735;52.134;5.436;2023-11-19T00:54:55;100873.09;;;12.20;94.68
80188;BME280;73735;52.134;5.436;2023-11-19T00:57:23;100867.13;;;12.18;94.81
80188;BME280;73735;52.134;5.436;2023-11-19T00:59:50;100865.44;;;12.17;94.76
80188;BME280;73735;52.134;5.436;2023-11-19T01:02:16;100867.13;;;12.18;94.55
80188;BME280;73735;52.134;5.436;2023-11-19T01:04:43;100874.19;;;12.18;94.70
80188;BME280;73735;52.134;5.436;2023-11-19T01:07:10;100874.06;;;12.19;94.57
80188;BME280;73735;52.134;5.436;2023-11-19T01:09:42;100875.63;;;12.22;94.69
80188;BME280;73735;52.134;5.436;2023-11-19T01:12:08;100876.47;;;12.22;94.62
80188;BME280;73735;52.134;5.436;2023-11-19T01:14:36;100880.78;;;12.23;94.54
80188;BME280;73735;52.134;5.436;2023-11-19T01:17:03;100879.94;;;12.23;94.52
80188;BME280;73735;52.134;5.436;2023-11-19T01:19:31;100870.22;;;12.23;94.51
80188;BME280;73735;52.134;5.436;2023-11-19T01:21:57;100868.16;;;12.27;94.46
80188;BME280;73735;52.134;5.436;2023-11-19T01:24:24;100854.84;;;12.28;94.38
80188;BME280;73735;52.134;5.436;2023-11-19T01:26:51;100856.06;;;12.24;94.27
80188;BME280;73735;52.134;5.436;2023-11-19T01:29:18;100859.66;;;12.23;94.29
80188;BME280;73735;52.134;5.436;2023-11-19T01:31:46;100849.09;;;12.23;94.30
80188;BME280;73735;52.134;5.436;2023-11-19T01:34:13;100836.88;;;12.22;94.43
80188;BME280;73735;52.134;5.436;2023-11-19T01:36:40;100856.06;;;12.24;94.25
80188;BME280;73735;52.134;5.436;2023-11-19T01:39:06;100849.09;;;12.23;94.26
80188;BME280;73735;52.134;5.436;2023-11-19T01:41:36;100843.81;;;12.23;93.96
80188;BME280;73735;52.134;5.436;2023-11-19T01:44:03;100856.88;;;12.25;93.97
80188;BME280;73735;52.134;5.436;2023-11-19T01:46:30;100846.19;;;12.26;93.85
80188;BME280;73735;52.134;5.436;2023-11-19T01:49:00;100850.53;;;12.27;93.90
80188;BME280;73735;52.134;5.436;2023-11-19T01:51:27;100858.44;;;12.27;93.70
80188;BME280;73735;52.134;5.436;2023-11-19T01:53:54;100853.16;;;12.27;93.58
80188;BME280;73735;52.134;5.436;2023-11-19T01:56:24;100857.47;;;12.28;93.76
80188;BME280;73735;52.134;5.436;2023-11-19T01:58:53;100855.53;;;12.30;93.72
80188;BME280;73735;52.134;5.436;2023-11-19T02:01:21;100854.59;;;12.31;93.38
80188;BME280;73735;52.134;5.436;2023-11-19T02:03:48;100860.41;;;12.35;93.31
80188;BME280;73735;52.134;5.436;2023-11-19T02:06:15;100856.94;;;12.34;93.15
80188;BME280;73735;52.134;5.436;2023-11-19T02:08:42;100855.25;;;12.33;93.09
80188;BME280;73735;52.134;5.436;2023-11-19T02:11:10;100844.81;;;12.32;93.20
80188;BME280;73735;52.134;5.436;2023-11-19T02:13:37;100844.16;;;12.30;93.13
80188;BME280;73735;52.134;5.436;2023-11-19T02:16:04;100831.47;;;12.24;92.86
80188;BME280;73735;52.134;5.436;2023-11-19T02:18:30;100842.97;;;12.23;92.84
80188;BME280;73735;52.134;5.436;2023-11-19T02:20:58;100843.53;;;12.17;92.43
80188;BME280;73735;52.134;5.436;2023-11-19T02:23:27;100856.13;;;12.13;92.82
80188;BME280;73735;52.134;5.436;2023-11-19T02:26:09;100855.41;;;12.11;92.96
80188;BME280;73735;52.134;5.436;2023-11-19T02:28:41;100870.41;;;12.11;92.78
80188;BME280;73735;52.134;5.436;2023-11-19T02:31:08;100867.19;;;12.07;92.58
80188;BME280;73735;52.134;5.436;2023-11-19T02:33:37;100868.41;;;12.03;92.62
80188;BME280;73735;52.134;5.436;2023-11-19T02:36:07;100872.00;;;12.02;92.54
80188;BME280;73735;52.134;5.436;2023-11-19T02:38:35;100871.19;;;12.02;92.51
80188;BME280;73735;52.134;5.436;2023-11-19T02:41:06;100863.41;;;12.00;92.31
80188;BME280;73735;52.134;5.436;2023-11-19T02:43:34;100865.34;;;11.98;92.45
80188;BME280;73735;52.134;5.436;2023-11-19T02:46:04;100862.94;;;11.95;92.34
80188;BME280;73735;52.134;5.436;2023-11-19T02:48:37;100843.78;;;11.93;92.11
80188;BME280;73735;52.134;5.436;2023-11-19T02:51:04;100838.63;;;11.91;92.31
80188;BME280;73735;52.134;5.436;2023-11-19T02:53:31;100852.66;;;11.92;91.93
80188;BME280;73735;52.134;5.436;2023-11-19T02:55:58;100840.41;;;11.91;91.91
80188;BME280;73735;52.134;5.436;2023-11-19T02:58:28;100854.56;;;11.90;92.01
80188;BME280;73735;52.134;5.436;2023-11-19T03:00:55;100863.44;;;11.89;91.75
80188;BME280;73735;52.134;5.436;2023-11-19T03:03:26;100859.97;;;11.88;91.57
80188;BME280;73735;52.134;5.436;2023-11-19T03:06:13;100855.94;;;11.84;91.55
80188;BME280;73735;52.134;5.436;2023-11-19T03:08:40;100848.53;;;11.78;91.48
80188;BME280;73735;52.134;5.436;2023-11-19T03:11:07;100853.91;;;11.77;91.54
80188;BME280;73735;52.134;5.436;2023-11-19T03:13:34;100858.44;;;11.75;91.36
80188;BME280;73735;52.134;5.436;2023-11-19T03:16:01;100856.09;;;11.72;91.35
80188;BME280;73735;52.134;5.436;2023-11-19T03:18:28;100862.31;;;11.71;91.50
80188;BME280;73735;52.134;5.436;2023-11-19T03:20:54;100866.88;;;11.69;91.33
80188;BME280;73735;52.134;5.436;2023-11-19T03:23:21;100862.56;;;11.68;91.26
80188;BME280;73735;52.134;5.436;2023-11-19T03:25:47;100857.53;;;11.64;91.04
80188;BME280;73735;52.134;5.436;2023-11-19T03:28:14;100856.13;;;11.60;91.00
80188;BME280;73735;52.134;5.436;2023-11-19T03:30:40;100858.19;;;11.57;91.12
80188;BME280;73735;52.134;5.436;2023-11-19T03:33:07;100854.97;;;11.53;91.33
80188;BME280;73735;52.134;5.436;2023-11-19T03:35:34;100847.28;;;11.50;91.31
80188;BME280;73735;52.134;5.436;2023-11-19T03:38:00;100842.03;;;11.50;91.37
80188;BME280;73735;52.134;5.436;2023-11-19T03:40:28;100837.84;;;11.48;90.98
80188;BME280;73735;52.134;5.436;2023-11-19T03:42:58;100836.41;;;11.44;90.96
80188;BME280;73735;52.134;5.436;2023-11-19T03:45:24;100831.97;;;11.44;91.10
80188;BME280;73735;52.134;5.436;2023-11-19T03:47:51;100826.97;;;11.41;90.69
80188;BME280;73735;52.134;5.436;2023-11-19T03:50:18;100845.66;;;11.38;91.11
80188;BME280;73735;52.134;5.436;2023-11-19T03:52:47;100853.69;;;11.37;91.23
80188;BME280;73735;52.134;5.436;2023-11-19T03:55:14;100844.22;;;11.34;91.00
80188;BME280;73735;52.134;5.436;2023-11-19T03:57:40;100853.94;;;11.34;90.97
80188;BME280;73735;52.134;5.436;2023-11-19T04:00:07;100849.75;;;11.31;90.97
80188;BME280;73735;52.134;5.436;2023-11-19T04:02:37;100851.94;;;11.26;90.88
80188;BME280;73735;52.134;5.436;2023-11-19T04:05:04;100860.81;;;11.25;90.95
80188;BME280;73735;52.134;5.436;2023-11-19T04:07:31;100866.56;;;11.19;90.77
80188;BME280;73735;52.134;5.436;2023-11-19T04:09:58;100871.09;;;11.17;90.99
80188;BME280;73735;52.134;5.436;2023-11-19T04:12:25;100863.19;;;11.17;90.99
80188;BME280;73735;52.134;5.436;2023-11-19T04:14:51;100861.53;;;11.16;91.03
80188;BME280;73735;52.134;5.436;2023-11-19T04:17:21;100868.47;;;11.17;90.97
80188;BME280;73735;52.134;5.436;2023-11-19T04:19:47;100864.16;;;11.16;90.67
80188;BME280;73735;52.134;5.436;2023-11-19T04:22:14;100870.41;;;11.15;90.77
80188;BME280;73735;52.134;5.436;2023-11-19T04:24:40;100872.34;;;11.13;90.82
80188;BME280;73735;52.134;5.436;2023-11-19T04:27:07;100870.41;;;11.15;90.92
80188;BME280;73735;52.134;5.436;2023-11-19T04:29:33;100873.88;;;11.15;90.82
80188;BME280;73735;52.134;5.436;2023-11-19T04:32:00;100880.09;;;11.14;90.75
80188;BME280;73735;52.134;5.436;2023-11-19T04:34:27;100868.97;;;11.11;90.45
80188;BME280;73735;52.134;5.436;2023-11-19T04:36:53;100868.25;;;11.09;90.71
80188;BME280;73735;52.134;5.436;2023-11-19T04:39:20;100864.66;;;11.10;90.57
80188;BME280;73735;52.134;5.436;2023-11-19T04:41:48;100870.91;;;11.09;90.36
80188;BME280;73735;52.134;5.436;2023-11-19T04:44:20;100875.34;;;11.08;90.53
80188;BME280;73735;52.134;5.436;2023-11-19T04:46:47;100868.38;;;11.07;90.52
80188;BME280;73735;52.134;5.436;2023-11-19T04:49:14;100877.38;;;11.05;90.20
80188;BME280;73735;52.134;5.436;2023-11-19T04:51:41;100877.25;;;11.06;90.35
80188;BME280;73735;52.134;5.436;2023-11-19T04:54:08;100865.16;;;11.04;90.19
80188;BME280;73735;52.134;5.436;2023-11-19T04:56:38;100868.75;;;11.03;90.14
80188;BME280;73735;52.134;5.436;2023-11-19T04:59:06;100860.25;;;10.99;90.37
80188;BME280;73735;52.134;5.436;2023-11-19T05:01:33;100870.94;;;10.98;90.11
80188;BME280;73735;52.134;5.436;2023-11-19T05:04:00;100862.31;;;10.95;90.19
80188;BME280;73735;52.134;5.436;2023-11-19T05:06:30;100862.31;;;10.95;89.98
80188;BME280;73735;52.134;5.436;2023-11-19T05:09:00;100873.19;;;10.91;90.02
80188;BME280;73735;52.134;5.436;2023-11-19T05:11:35;100877.63;;;10.90;90.28
80188;BME280;73735;52.134;5.436;2023-11-19T05:14:16;100885.66;;;10.89;90.07
80188;BME280;73735;52.134;5.436;2023-11-19T05:16:42;100883.97;;;10.88;90.18
80188;BME280;73735;52.134;5.436;2023-11-19T05:19:09;100881.22;;;10.89;90.21
80188;BME280;73735;52.134;5.436;2023-11-19T05:21:36;100880.38;;;10.89;90.00
80188;BME280;73735;52.134;5.436;2023-11-19T05:24:02;100872.59;;;10.87;89.97
80188;BME280;73735;52.134;5.436;2023-11-19T05:26:30;100869.72;;;10.90;89.88
80188;BME280;73735;52.134;5.436;2023-11-19T05:28:57;100871.50;;;10.90;89.90
80188;BME280;73735;52.134;5.436;2023-11-19T05:31:24;100870.06;;;10.86;89.79
80188;BME280;73735;52.134;5.436;2023-11-19T05:33:50;100874.78;;;10.82;89.55
80188;BME280;73735;52.134;5.436;2023-11-19T05:36:17;100871.41;;;10.80;89.57
80188;BME280;73735;52.134;5.436;2023-11-19T05:38:43;100873.22;;;10.80;89.50
80188;BME280;73735;52.134;5.436;2023-11-19T05:41:11;100878.59;;;10.78;89.30
80188;BME280;73735;52.134;5.436;2023-11-19T05:43:37;100878.81;;;10.75;89.45
80188;BME280;73735;52.134;5.436;2023-11-19T05:46:07;100881.69;;;10.72;89.52
80188;BME280;73735;52.134;5.436;2023-11-19T05:48:45;100872.13;;;10.71;89.62
80188;BME280;73735;52.134;5.436;2023-11-19T05:51:13;100876.66;;;10.69;89.47
80188;BME280;73735;52.134;5.436;2023-11-19T05:53:41;100865.44;;;10.67;89.44
80188;BME280;73735;52.134;5.436;2023-11-19T05:56:08;100876.66;;;10.69;89.33
80188;BME280;73735;52.134;5.436;2023-11-19T05:58:35;100887.91;;;10.71;89.50
80188;BME280;73735;52.134;5.436;2023-11-19T06:01:02;100880.00;;;10.71;89.23
80188;BME280;73735;52.134;5.436;2023-11-19T06:03:29;100889.81;;;10.69;89.48
80188;BME280;73735;52.134;5.436;2023-11-19T06:05:56;100881.94;;;10.69;89.27
80188;BME280;73735;52.134;5.436;2023-11-19T06:08:22;100881.81;;;10.71;89.24
80188;BME280;73735;52.134;5.436;2023-11-19T06:10:49;100887.19;;;10.69;89.55
80188;BME280;73735;52.134;5.436;2023-11-19T06:13:17;100869.59;;;10.70;89.36
80188;BME280;73735;52.134;5.436;2023-11-19T06:15:44;100881.81;;;10.71;89.31
80188;BME280;73735;52.134;5.436;2023-11-19T06:18:10;100875.59;;;10.72;89.19
80188;BME280;73735;52.134;5.436;2023-11-19T06:20:40;100885.53;;;10.68;89.35
80188;BME280;73735;52.134;5.436;2023-11-19T06:23:09;100883.88;;;10.67;89.35
80188;BME280;73735;52.134;5.436;2023-11-19T06:25:35;100880.63;;;10.64;89.10
80188;BME280;73735;52.134;5.436;2023-11-19T06:28:03;100892.13;;;10.63;89.74
80188;BME280;73735;52.134;5.436;2023-11-19T06:30:29;100891.16;;;10.64;89.18
80188;BME280;73735;52.134;5.436;2023-11-19T06:32:58;100890.31;;;10.63;89.30
80188;BME280;73735;52.134;5.436;2023-11-19T06:35:26;100895.69;;;10.62;89.29
80188;BME280;73735;52.134;5.436;2023-11-19T06:37:52;100896.78;;;10.59;89.36
80188;BME280;73735;52.134;5.436;2023-11-19T06:40:19;100891.41;;;10.60;89.68
80188;BME280;73735;52.134;5.436;2023-11-19T06:42:46;100905.41;;;10.61;89.33
80188;BME280;73735;52.134;5.436;2023-11-19T06:45:12;100906.34;;;10.60;89.36
80188;BME280;73735;52.134;5.436;2023-11-19T06:47:38;100904.78;;;10.57;89.47
80188;BME280;73735;52.134;5.436;2023-11-19T06:50:05;100908.50;;;10.55;89.50
80188;BME280;73735;52.134;5.436;2023-11-19T06:52:33;100915.53;;;10.54;89.49
80188;BME280;73735;52.134;5.436;2023-11-19T06:54:59;100912.78;;;10.56;89.59
80188;BME280;73735;52.134;5.436;2023-11-19T06:57:29;100912.78;;;10.56;89.38
80188;BME280;73735;52.134;5.436;2023-11-19T06:59:58;100912.06;;;10.54;89.59
80188;BME280;73735;52.134;5.436;2023-11-19T07:02:25;100925.00;;;10.57;89.52
80188;BME280;73735;52.134;5.436;2023-11-19T07:04:53;100918.78;;;10.58;89.27
80188;BME280;73735;52.134;5.436;2023-11-19T07:07:20;100926.69;;;10.58;89.29
80188;BME280;73735;52.134;5.436;2023-11-19T07:09:47;100925.72;;;10.59;89.36
80188;BME280;73735;52.134;5.436;2023-11-19T07:12:14;100926.56;;;10.59;89.28
80188;BME280;73735;52.134;5.436;2023-11-19T07:14:41;100924.06;;;10.58;89.34
80188;BME280;73735;52.134;5.436;2023-11-19T07:17:08;100925.00;;;10.57;89.30
80188;BME280;73735;52.134;5.436;2023-11-19T07:19:35;100933.63;;;10.59;89.36
80188;BME280;73735;52.134;5.436;2023-11-19T07:22:02;100936.03;;;10.62;89.48
80188;BME280;73735;52.134;5.436;2023-11-19T07:24:29;100941.31;;;10.62;89.48
80188;BME280;73735;52.134;5.436;2023-11-19T07:26:55;100938.66;;;10.62;89.44
80188;BME280;73735;52.134;5.436;2023-11-19T07:29:22;100947.41;;;10.63;89.33
80188;BME280;73735;52.134;5.436;2023-11-19T07:31:51;100945.59;;;10.63;89.34
80188;BME280;73735;52.134;5.436;2023-11-19T07:34:18;100950.88;;;10.63;89.30
80188;BME280;73735;52.134;5.436;2023-11-19T07:36:44;100946.56;;;10.62;89.20
80188;BME280;73735;52.134;5.436;2023-11-19T07:39:11;100949.09;;;10.64;89.19
80188;BME280;73735;52.134;5.436;2023-11-19T07:41:37;100951.50;;;10.67;89.24
80188;BME280;73735;52.134;5.436;2023-11-19T07:44:04;100948.00;;;10.66;89.29
80188;BME280;73735;52.134;5.436;2023-11-19T07:46:30;100948.84;;;10.67;89.01
80188;BME280;73735;52.134;5.436;2023-11-19T07:48:58;100954.13;;;10.67;88.89
80188;BME280;73735;52.134;5.436;2023-11-19T07:51:24;100949.53;;;10.69;88.93
80188;BME280;73735;52.134;5.436;2023-11-19T07:53:51;100951.38;;;10.68;88.93
80188;BME280;73735;52.134;5.436;2023-11-19T07:56:17;100946.69;;;10.72;88.85
80188;BME280;73735;52.134;5.436;2023-11-19T07:58:44;100943.94;;;10.73;88.85
80188;BME280;73735;52.134;5.436;2023-11-19T08:01:10;100944.78;;;10.74;88.92
80188;BME280;73735;52.134;5.436;2023-11-19T08:03:36;100939.63;;;10.72;88.95
80188;BME280;73735;52.134;5.436;2023-11-19T08:06:04;100940.56;;;10.71;89.04
80188;BME280;73735;52.134;5.436;2023-11-19T08:08:30;100944.88;;;10.72;88.97
80188;BME280;73735;52.134;5.436;2023-11-19T08:10:59;100944.66;;;10.75;88.97
80188;BME280;73735;52.134;5.436;2023-11-19T08:13:25;100944.53;;;10.77;89.02
80188;BME280;73735;52.134;5.436;2023-11-19T08:15:52;100946.22;;;10.78;88.95
80188;BME280;73735;52.134;5.436;2023-11-19T08:18:18;100943.47;;;10.79;88.95
80188;BME280;73735;52.134;5.436;2023-11-19T08:20:45;100952.31;;;10.78;89.03
80188;BME280;73735;52.134;5.436;2023-11-19T08:23:11;100952.22;;;10.80;89.04
80188;BME280;73735;52.134;5.436;2023-11-19T08:25:39;100955.44;;;10.83;88.94
80188;BME280;73735;52.134;5.436;2023-11-19T08:28:05;100943.94;;;10.84;89.01
80188;BME280;73735;52.134;5.436;2023-11-19T08:30:32;100942.97;;;10.85;88.73
80188;BME280;73735;52.134;5.436;2023-11-19T08:32:58;100951.59;;;10.87;89.07
80188;BME280;73735;52.134;5.436;2023-11-19T08:35:29;100949.69;;;10.89;89.05
80188;BME280;73735;52.134;5.436;2023-11-19T08:37:56;100952.81;;;10.94;89.09
80188;BME280;73735;52.134;5.436;2023-11-19T08:40:23;100957.97;;;10.96;88.97
80188;BME280;73735;52.134;5.436;2023-11-19T08:42:49;100958.69;;;10.98;88.84
80188;BME280;73735;52.134;5.436;2023-11-19T08:45:16;100972.44;;;11.02;88.69
80188;BME280;73735;52.134;5.436;2023-11-19T08:47:43;100964.31;;;11.05;88.29
80188;BME280;73735;52.134;5.436;2023-11-19T08:50:11;100967.66;;;11.07;88.67
80188;BME280;73735;52.134;5.436;2023-11-19T08:52:38;100971.63;;;11.12;88.58
80188;BME280;73735;52.134;5.436;2023-11-19T08:55:05;100963.34;;;11.17;88.41
80188;BME280;73735;52.134;5.436;2023-11-19T08:57:31;100957.00;;;11.19;88.19
80188;BME280;73735;52.134;5.436;2023-11-19T08:59:59;100963.94;;;11.20;87.96
80188;BME280;73735;52.134;5.436;2023-11-19T09:02:25;100953.16;;;11.23;88.15
80188;BME280;73735;52.134;5.436;2023-11-19T09:04:52;100963.19;;;11.29;87.84
80188;BME280;73735;52.134;5.436;2023-11-19T09:07:20;100966.19;;;11.36;87.75
80188;BME280;73735;52.134;5.436;2023-11-19T09:09:47;100953.63;;;11.40;87.72
80188;BME280;73735;52.134;5.436;2023-11-19T09:12:14;100964.63;;;11.45;87.43
80188;BME280;73735;52.134;5.436;2023-11-19T09:14:40;100968.94;;;11.46;87.53
80188;BME280;73735;52.134;5.436;2023-11-19T09:17:08;100959.94;;;11.48;87.33
80188;BME280;73735;52.134;5.436;2023-11-19T09:19:35;100949.16;;;11.51;87.29
80188;BME280;73735;52.134;5.436;2023-11-19T09:22:03;100959.47;;;11.54;87.26
80188;BME280;73735;52.134;5.436;2023-11-19T09:24:30;100960.19;;;11.56;86.88
80188;BME280;73735;52.134;5.436;2023-11-19T09:26:56;100961.88;;;11.57;86.63
80188;BME280;73735;52.134;5.436;2023-11-19T09:29:23;100956.59;;;11.57;86.58
80188;BME280;73735;52.134;5.436;2023-11-19T09:31:50;100952.97;;;11.58;86.72
80188;BME280;73735;52.134;5.436;2023-11-19T09:34:16;100957.28;;;11.59;86.47
80188;BME280;73735;52.134;5.436;2023-11-19T09:36:43;100961.47;;;11.62;86.31
80188;BME280;73735;52.134;5.436;2023-11-19T09:39:11;100963.03;;;11.64;86.55
80188;BME280;73735;52.134;5.436;2023-11-19T09:41:41;100961.22;;;11.65;86.40
80188;BME280;73735;52.134;5.436;2023-11-19T09:44:09;100955.72;;;11.68;86.39
80188;BME280;73735;52.134;5.436;2023-11-19T09:46:36;100958.94;;;11.72;86.11
80188;BME280;73735;52.134;5.436;2023-11-19T09:49:03;100958.69;;;11.75;85.77
80188;BME280;73735;52.134;5.436;2023-11-19T09:51:30;100956.78;;;11.77;86.19
80188;BME280;73735;52.134;5.436;2023-11-19T09:53:57;100952.34;;;11.77;85.84
80188;BME280;73735;52.134;5.436;2023-11-19T09:56:24;100939.03;;;11.79;85.90
80188;BME280;73735;52.134;5.436;2023-11-19T09:58:50;100941.44;;;11.82;85.78
80188;BME280;73735;52.134;5.436;2023-11-19T10:01:17;100939.63;;;11.82;85.43
80188;BME280;73735;52.134;5.436;2023-11-19T10:03:55;100941.31;;;11.83;85.61
80188;BME280;73735;52.134;5.436;2023-11-19T10:06:22;100934.13;;;11.85;85.33
80188;BME280;73735;52.134;5.436;2023-11-19T10:08:52;100942.47;;;11.90;85.23
80188;BME280;73735;52.134;5.436;2023-11-19T10:11:19;100939.59;;;11.93;84.94
80188;BME280;73735;52.134;5.436;2023-11-19T10:13:45;100933.09;;;11.97;84.93
80188;BME280;73735;52.134;5.436;2023-11-19T10:16:14;100935.34;;;12.02;84.71
80188;BME280;73735;52.134;5.436;2023-11-19T10:18:45;100931.38;;;12.08;85.08
80188;BME280;73735;52.134;5.436;2023-11-19T10:21:14;100916.84;;;12.13;84.37
80188;BME280;73735;52.134;5.436;2023-11-19T10:23:56;100918.94;;;12.19;84.21
80188;BME280;73735;52.134;5.436;2023-11-19T10:26:25;100926.81;;;12.30;84.01
80188;BME280;73735;52.134;5.436;2023-11-19T10:28:52;100910.91;;;12.42;83.56
80188;BME280;73735;52.134;5.436;2023-11-19T10:31:20;100921.09;;;12.46;82.66
80188;BME280;73735;52.134;5.436;2023-11-19T10:33:51;100912.63;;;12.52;82.95
80188;BME280;73735;52.134;5.436;2023-11-19T10:36:18;100912.09;;;12.58;82.53
80188;BME280;73735;52.134;5.436;2023-11-19T10:38:56;100919.75;;;12.61;82.48
80188;BME280;73735;52.134;5.436;2023-11-19T10:41:27;100911.81;;;12.61;82.34
80188;BME280;73735;52.134;5.436;2023-11-19T10:43:53;100920.75;;;12.60;82.19
80188;BME280;73735;52.134;5.436;2023-11-19T10:46:20;100912.53;;;12.63;82.13
80188;BME280;73735;52.134;5.436;2023-11-19T10:48:49;100910.47;;;12.67;81.88
80188;BME280;73735;52.134;5.436;2023-11-19T10:51:19;100904.13;;;12.79;81.44
80188;BME280;73735;52.134;5.436;2023-11-19T10:53:51;100913.91;;;12.88;81.49
80188;BME280;73735;52.134;5.436;2023-11-19T10:56:20;100923.94;;;12.94;81.29
80188;BME280;73735;52.134;5.436;2023-11-19T10:58:51;100915.63;;;12.99;80.82
80188;BME280;73735;52.134;5.436;2023-11-19T11:01:19;100904.78;;;13.02;81.02
80188;BME280;73735;52.134;5.436;2023-11-19T11:03:50;100908.97;;;13.04;81.06
80188;BME280;73735;52.134;5.436;2023-11-19T11:06:18;100905.50;;;13.04;80.13
80188;BME280;73735;52.134;5.436;2023-11-19T11:08:46;100931.09;;;13.03;80.52
80188;BME280;73735;52.134;5.436;2023-11-19T11:11:15;100921.47;;;13.02;79.94
80188;BME280;73735;52.134;5.436;2023-11-19T11:13:44;100916.91;;;13.04;80.13
80188;BME280;73735;52.134;5.436;2023-11-19T11:16:12;100921.63;;;13.01;80.26
80188;BME280;73735;52.134;5.436;2023-11-19T11:18:40;100927.16;;;12.98;80.64
80188;BME280;73735;52.134;5.436;2023-11-19T11:21:09;100926.06;;;13.00;79.69
80188;BME280;73735;52.134;5.436;2023-11-19T11:26:35;100903.13;;;13.01;79.75
80188;BME280;73735;52.134;5.436;2023-11-19T11:29:10;100906.84;;;12.98;80.25
80188;BME280;73735;52.134;5.436;2023-11-19T11:37:26;100906.28;;;12.95;80.05
80188;BME280;73735;52.134;5.436;2023-11-19T11:39:57;100894.59;;;12.97;80.42
80188;BME280;73735;52.134;5.436;2023-11-19T11:45:12;100905.44;;;12.94;80.16
80188;BME280;73735;52.134;5.436;2023-11-19T11:55:24;100901.56;;;12.98;80.60
80188;BME280;73735;52.134;5.436;2023-11-19T11:57:51;100899.66;;;13.10;80.43
80188;BME280;73735;52.134;5.436;2023-11-19T12:00:29;100897.13;;;13.08;80.42
80188;BME280;73735;52.134;5.436;2023-11-19T12:02:57;100895.75;;;13.04;80.01
80188;BME280;73735;52.134;5.436;2023-11-19T12:05:25;100893.13;;;13.04;80.32
80188;BME280;73735;52.134;5.436;2023-11-19T12:08:04;100890.59;;;13.03;80.49
80188;BME280;73735;52.134;5.436;2023-11-19T12:13:15;100888.63;;;12.95;80.12
80188;BME280;73735;52.134;5.436;2023-11-19T12:16:07;100896.13;;;12.90;80.05
80188;BME280;73735;52.134;5.436;2023-11-19T12:18:34;100887.50;;;12.88;79.91
80188;BME280;73735;52.134;5.436;2023-11-19T12:21:02;100880.28;;;12.90;79.48
80188;BME280;73735;52.134;5.436;2023-11-19T12:23:29;100875.53;;;12.94;80.01
80188;BME280;73735;52.134;5.436;2023-11-19T12:25:56;100881.66;;;12.94;79.98
80188;BME280;73735;52.134;5.436;2023-11-19T12:28:23;100879.97;;;12.93;80.07
80188;BME280;73735;52.134;5.436;2023-11-19T12:31:07;100885.28;;;12.93;80.48
80188;BME280;73735;52.134;5.436;2023-11-19T12:33:35;100888.88;;;12.92;80.54
80188;BME280;73735;52.134;5.436;2023-11-19T12:36:02;100881.91;;;12.91;80.15
80188;BME280;73735;52.134;5.436;2023-11-19T12:38:31;100884.84;;;12.88;80.17
80188;BME280;73735;52.134;5.436;2023-11-19T12:41:08;100885.13;;;12.85;79.96
80188;BME280;73735;52.134;5.436;2023-11-19T12:43:37;100888.84;;;12.83;80.19
80188;BME280;73735;52.134;5.436;2023-11-19T12:46:19;100885.38;;;12.82;79.98
80188;BME280;73735;52.134;5.436;2023-11-19T12:48:47;100886.91;;;12.85;80.30
80188;BME280;73735;52.134;5.436;2023-11-19T12:51:14;100892.78;;;12.88;80.04
80188;BME280;73735;52.134;5.436;2023-11-19T12:53:53;100891.53;;;12.92;80.31
80188;BME280;73735;52.134;5.436;2023-11-19T12:56:24;100886.81;;;12.96;79.95
80188;BME280;73735;52.134;5.436;2023-11-19T12:58:51;100888.03;;;12.92;79.68
80188;BME280;73735;52.134;5.436;2023-11-19T13:01:18;100881.91;;;12.91;79.83
80188;BME280;73735;52.134;5.436;2023-11-19T13:03:46;100889.03;;;12.91;79.32
80188;BME280;73735;52.134;5.436;2023-11-19T13:06:15;100884.56;;;12.91;79.70
80188;BME280;73735;52.134;5.436;2023-11-19T13:08:46;100875.00;;;12.90;79.93
80188;BME280;73735;52.134;5.436;2023-11-19T13:11:15;100882.22;;;12.88;79.54
80188;BME280;73735;52.134;5.436;2023-11-19T13:14:05;100869.97;;;12.87;80.08
80188;BME280;73735;52.134;5.436;2023-11-19T13:16:36;100881.63;;;12.85;80.20